Time;durP1;ratioP1;P1;durP2;ratioP2;P2;SDS_P1;SDS_P2;PMS_P1;PMS_P2;Temp;Humidity;BMP_temperature;BMP_pressure;BME280_temperature;BME280_humidity;BME280_pressure;Samples;Min_cycle;Max_cycle;Signal;HPM_P1;HPM_P2
2021/08/07 00:02:00;;;;;;;1.30;1.30;;;18.50;99.90;;;;;;4820670;29;20658;-69
2021/08/07 00:04:26;;;;;;;2.43;1.43;;;18.40;99.90;;;;;;4805526;29;20232;-69
2021/08/07 00:06:52;;;;;;;1.83;1.47;;;18.40;99.90;;;;;;4814923;29;20788;-69
2021/08/07 00:09:18;;;;;;;1.60;1.50;;;18.40;99.90;;;;;;4850445;29;20492;-69
2021/08/07 00:11:43;;;;;;;1.60;1.27;;;18.40;99.90;;;;;;4824101;29;20277;-70
2021/08/07 00:14:09;;;;;;;1.53;1.43;;;18.40;99.90;;;;;;4809924;29;20319;-69
2021/08/07 00:16:35;;;;;;;2.40;1.60;;;18.40;99.90;;;;;;4808818;29;20227;-69
2021/08/07 00:19:00;;;;;;;2.40;1.40;;;18.40;99.90;;;;;;4840557;29;20223;-69
2021/08/07 00:21:26;;;;;;;1.97;1.87;;;18.40;99.90;;;;;;4823421;29;20250;-69
2021/08/07 00:23:52;;;;;;;2.20;2.00;;;18.40;99.90;;;;;;4809102;29;20227;-69
2021/08/07 00:26:17;;;;;;;2.37;2.20;;;18.40;99.90;;;;;;4820852;29;20375;-69
2021/08/07 00:28:43;;;;;;;4.33;2.13;;;18.30;99.90;;;;;;4809084;29;20260;-69
2021/08/07 00:31:09;;;;;;;2.50;2.30;;;18.40;99.90;;;;;;4808491;29;20732;-69
2021/08/07 00:33:34;;;;;;;2.07;1.97;;;18.30;99.90;;;;;;4811837;29;20254;-69
2021/08/07 00:36:00;;;;;;;3.60;1.80;;;18.30;99.90;;;;;;4808199;29;20242;-68
2021/08/07 00:38:26;;;;;;;1.57;1.47;;;18.30;99.90;;;;;;4824728;29;20224;-68
2021/08/07 00:40:52;;;;;;;1.67;1.57;;;18.30;99.90;;;;;;4821951;29;20239;-69
2021/08/07 00:43:18;;;;;;;2.40;1.73;;;18.30;99.90;;;;;;4809146;29;20616;-70
2021/08/07 00:45:43;;;;;;;1.80;1.70;;;18.20;99.90;;;;;;4824152;29;20643;-69
2021/08/07 00:48:15;;;;;;;1.90;1.80;;;18.20;99.90;;;;;;4824429;29;20231;-69
2021/08/07 00:50:50;;;;;;;2.13;1.93;;;18.20;99.90;;;;;;4823680;29;20996;-69
2021/08/07 00:53:22;;;;;;;1.83;1.73;;;18.20;99.90;;;;;;4818131;29;20535;-69
2021/08/07 00:55:50;;;;;;;2.30;2.10;;;18.20;99.90;;;;;;4808678;29;20996;-69
2021/08/07 00:58:16;;;;;;;2.97;2.20;;;18.10;99.90;;;;;;4816316;29;20859;-69
2021/08/07 01:00:43;;;;;;;2.53;1.90;;;18.10;99.90;;;;;;4808479;29;20472;-69
2021/08/07 01:03:36;;;;;;;2.40;2.30;;;18.10;99.90;;;;;;4805769;29;20496;-69
2021/08/07 01:06:16;;;;;;;2.60;2.40;;;18.10;99.90;;;;;;4820531;29;20482;-69
2021/08/07 01:09:07;;;;;;;2.73;2.53;;;18.10;99.90;;;;;;4790602;29;20531;-71
2021/08/07 01:11:49;;;;;;;2.60;2.40;;;18.10;99.90;;;;;;4823945;29;20472;-68
2021/08/07 01:14:20;;;;;;;1.63;1.53;;;18.10;99.90;;;;;;4808671;29;20574;-70
2021/08/07 01:16:49;;;;;;;1.63;1.53;;;18.10;99.90;;;;;;4823515;29;21114;-68
2021/08/07 01:19:17;;;;;;;1.97;1.83;;;18.10;99.90;;;;;;4823160;29;20557;-67
2021/08/07 01:21:58;;;;;;;1.97;1.87;;;18.10;99.90;;;;;;4807988;29;20469;-70
2021/08/07 01:24:28;;;;;;;1.90;1.80;;;18.00;99.90;;;;;;4823712;29;20854;-69
2021/08/07 01:27:16;;;;;;;1.73;1.63;;;18.00;99.90;;;;;;4823223;29;21003;-69
2021/08/07 01:29:44;;;;;;;2.03;1.83;;;18.00;99.90;;;;;;4808236;29;20456;-69
2021/08/07 01:32:11;;;;;;;2.20;2.10;;;18.00;99.90;;;;;;4823385;29;20483;-69
2021/08/07 01:34:40;;;;;;;2.63;2.07;;;18.00;99.90;;;;;;4808768;29;21028;-69
2021/08/07 01:37:09;;;;;;;2.63;1.90;;;17.90;99.90;;;;;;4808314;29;21012;-69
2021/08/07 01:39:50;;;;;;;2.27;2.07;;;17.90;99.90;;;;;;4811455;29;20480;-69
2021/08/07 01:42:26;;;;;;;1.83;1.73;;;17.80;99.90;;;;;;4824201;29;20958;-69
2021/08/07 01:44:53;;;;;;;2.40;2.20;;;17.80;99.90;;;;;;4823062;29;20463;-68
2021/08/07 01:47:32;;;;;;;2.70;1.83;;;17.80;99.90;;;;;;4808289;29;20513;-69
2021/08/07 01:50:07;;;;;;;1.83;1.73;;;17.80;99.90;;;;;;4807784;29;20471;-70
2021/08/07 01:52:38;;;;;;;2.07;1.70;;;17.80;99.90;;;;;;4823159;29;20991;-69
2021/08/07 01:55:15;;;;;;;2.23;1.83;;;17.80;99.90;;;;;;4808484;29;20471;-66
2021/08/07 01:58:02;;;;;;;1.80;1.70;;;17.80;99.90;;;;;;4822208;29;20468;-69
2021/08/07 02:00:28;;;;;;;5.03;1.83;;;17.80;99.90;;;;;;4808396;29;20479;-69
2021/08/07 02:02:57;;;;;;;2.87;2.60;;;17.70;99.90;;;;;;4813505;29;20477;-69
2021/08/07 02:05:29;;;;;;;7.00;2.80;;;17.70;99.90;;;;;;4805556;29;20517;-69
2021/08/07 02:07:58;;;;;;;3.90;2.50;;;17.70;99.90;;;;;;4819814;29;20473;-69
2021/08/07 02:10:27;;;;;;;2.80;2.10;;;17.70;99.90;;;;;;4819912;29;20483;-69
2021/08/07 02:12:57;;;;;;;3.10;1.70;;;17.70;99.90;;;;;;4807178;29;20472;-69
2021/08/07 02:15:24;;;;;;;2.00;1.80;;;17.60;99.90;;;;;;4822471;29;20488;-69
2021/08/07 02:17:59;;;;;;;2.17;1.90;;;17.60;99.90;;;;;;4808417;29;20517;-68
2021/08/07 02:20:28;;;;;;;2.13;1.93;;;17.60;99.90;;;;;;4807674;29;20499;-70
2021/08/07 02:22:56;;;;;;;1.80;1.70;;;17.60;99.90;;;;;;4807220;29;20468;-69
2021/08/07 02:25:23;;;;;;;2.20;2.00;;;17.60;99.90;;;;;;4838453;29;20547;-69
2021/08/07 02:27:58;;;;;;;1.63;1.53;;;17.60;99.90;;;;;;4824005;29;20463;-69
2021/08/07 02:30:29;;;;;;;2.23;1.73;;;17.60;99.90;;;;;;4838105;29;20841;-69
2021/08/07 02:32:56;;;;;;;1.50;1.40;;;17.50;99.90;;;;;;4828745;29;20504;-69
2021/08/07 02:35:23;;;;;;;3.10;1.50;;;17.50;99.90;;;;;;4821952;29;21077;-69
2021/08/07 02:37:52;;;;;;;4.87;1.80;;;17.50;99.90;;;;;;4813876;29;20533;-69
2021/08/07 02:40:20;;;;;;;2.77;1.70;;;17.50;99.90;;;;;;4824081;29;20468;-69
2021/08/07 02:42:53;;;;;;;1.60;1.37;;;17.50;99.90;;;;;;4810814;29;20472;-68
2021/08/07 02:45:20;;;;;;;1.47;1.37;;;17.40;99.90;;;;;;4811297;29;20468;-69
2021/08/07 02:47:49;;;;;;;1.47;1.37;;;17.40;99.90;;;;;;4811081;29;20460;-69
2021/08/07 02:50:16;;;;;;;1.47;1.30;;;17.30;99.90;;;;;;4811243;29;20466;-69
2021/08/07 02:52:44;;;;;;;1.10;1.10;;;17.20;99.90;;;;;;4822201;29;20462;-69
2021/08/07 02:55:14;;;;;;;4.60;1.70;;;17.30;99.90;;;;;;4826173;29;20468;-69
2021/08/07 02:57:41;;;;;;;2.80;1.63;;;17.30;99.90;;;;;;4810709;29;20554;-68
2021/08/07 03:00:10;;;;;;;1.70;1.60;;;17.30;99.90;;;;;;4811067;29;20476;-70
2021/08/07 03:02:39;;;;;;;1.20;1.10;;;17.30;99.90;;;;;;4811089;29;20472;-70
2021/08/07 03:05:05;;;;;;;1.50;1.40;;;17.30;99.90;;;;;;4825166;29;20484;-69
2021/08/07 03:07:31;;;;;;;2.50;1.40;;;17.30;99.90;;;;;;4825813;29;20889;-68
2021/08/07 03:09:57;;;;;;;2.13;1.40;;;17.30;99.90;;;;;;4810595;29;20307;-69
2021/08/07 03:12:23;;;;;;;1.00;1.00;;;17.30;99.90;;;;;;4819508;29;20540;-69
2021/08/07 03:14:48;;;;;;;2.43;1.50;;;17.30;99.90;;;;;;4820542;29;20219;-69
2021/08/07 03:17:14;;;;;;;2.93;1.37;;;17.30;99.90;;;;;;4810510;29;20307;-69
2021/08/07 03:19:42;;;;;;;1.70;1.60;;;17.30;99.90;;;;;;4807016;29;20320;-69
2021/08/07 03:22:09;;;;;;;1.37;1.27;;;17.30;99.90;;;;;;4825003;29;20483;-70
2021/08/07 03:24:37;;;;;;;1.70;1.60;;;17.30;99.90;;;;;;4825534;29;20537;-69
2021/08/07 03:27:04;;;;;;;2.73;1.47;;;17.30;99.90;;;;;;4825290;29;20452;-69
2021/08/07 03:29:31;;;;;;;1.50;1.40;;;17.30;99.90;;;;;;4810642;29;20492;-68
2021/08/07 03:32:03;;;;;;;2.10;1.60;;;17.30;99.90;;;;;;4810531;29;20514;-68
2021/08/07 03:34:36;;;;;;;1.30;1.20;;;17.30;99.90;;;;;;4810905;29;20525;-69
2021/08/07 03:37:02;;;;;;;1.10;1.10;;;17.30;99.90;;;;;;4828083;29;20457;-69
2021/08/07 03:39:31;;;;;;;1.47;1.37;;;17.30;99.90;;;;;;4834104;29;20220;-68
2021/08/07 03:41:57;;;;;;;1.90;1.30;;;17.30;99.90;;;;;;4824443;29;20844;-71
2021/08/07 03:44:23;;;;;;;1.87;1.67;;;17.30;99.90;;;;;;4810441;29;20464;-69
2021/08/07 03:46:50;;;;;;;1.47;1.37;;;17.30;99.90;;;;;;4810230;29;20223;-69
2021/08/07 03:49:16;;;;;;;2.50;1.50;;;17.30;99.90;;;;;;4810248;29;20840;-67
2021/08/07 03:51:45;;;;;;;1.90;1.10;;;17.30;99.90;;;;;;4810070;29;20223;-69
2021/08/07 03:54:12;;;;;;;1.93;1.50;;;17.30;99.90;;;;;;4818629;29;20459;-69
2021/08/07 03:56:40;;;;;;;1.43;1.33;;;17.30;99.90;;;;;;4824844;29;20459;-72
2021/08/07 03:59:06;;;;;;;1.30;1.20;;;17.20;99.90;;;;;;4809945;29;20476;-67
2021/08/07 04:01:33;;;;;;;1.67;1.57;;;17.20;99.90;;;;;;4824888;29;20483;-69
2021/08/07 04:04:04;;;;;;;1.30;1.20;;;17.20;99.90;;;;;;4809966;29;20961;-68
2021/08/07 04:06:39;;;;;;;1.40;1.30;;;17.30;99.90;;;;;;4825298;29;20551;-69
2021/08/07 04:09:07;;;;;;;1.57;1.33;;;17.20;99.90;;;;;;4810037;29;20457;-69
2021/08/07 04:11:33;;;;;;;1.33;1.20;;;17.20;99.90;;;;;;4809196;29;21080;-69
2021/08/07 04:14:03;;;;;;;1.50;1.33;;;17.20;99.90;;;;;;4809135;29;20229;-69
2021/08/07 04:16:29;;;;;;;1.60;1.50;;;17.20;99.90;;;;;;4809826;29;20464;-69
2021/08/07 04:19:00;;;;;;;2.10;1.53;;;17.20;99.90;;;;;;4824182;29;20235;-69
2021/08/07 04:21:26;;;;;;;11.07;1.43;;;17.20;99.90;;;;;;4825138;29;20535;-69
2021/08/07 04:23:52;;;;;;;1.40;1.30;;;17.20;99.90;;;;;;4824411;29;21081;-69
2021/08/07 04:26:18;;;;;;;1.87;1.50;;;17.30;99.90;;;;;;4808666;29;20223;-69
2021/08/07 04:28:44;;;;;;;3.20;2.20;;;17.30;99.90;;;;;;4809119;29;20475;-68
2021/08/07 04:31:11;;;;;;;1.60;1.50;;;17.20;99.90;;;;;;4824410;29;20230;-69
2021/08/07 04:33:37;;;;;;;1.40;1.30;;;17.20;99.90;;;;;;4808945;29;20861;-69
2021/08/07 04:36:04;;;;;;;1.47;1.37;;;17.20;99.90;;;;;;4807858;29;20223;-68
2021/08/07 04:38:31;;;;;;;1.40;1.30;;;17.20;99.90;;;;;;4809274;29;20223;-68
2021/08/07 04:40:56;;;;;;;2.80;1.67;;;17.30;99.90;;;;;;4807731;29;20476;-68
2021/08/07 04:43:31;;;;;;;1.37;1.30;;;17.20;99.90;;;;;;4824370;29;20471;-70
2021/08/07 04:45:57;;;;;;;1.83;1.23;;;17.20;99.90;;;;;;4808761;29;20456;-69
2021/08/07 04:48:24;;;;;;;1.50;1.50;;;17.20;99.90;;;;;;4809277;29;20587;-69
2021/08/07 04:50:58;;;;;;;4.10;1.43;;;17.20;99.90;;;;;;4823560;29;20866;-69
2021/08/07 04:53:24;;;;;;;1.23;1.13;;;17.20;99.90;;;;;;4823642;29;21028;-68
2021/08/07 04:55:55;;;;;;;4.40;1.57;;;17.20;99.90;;;;;;4809460;29;20231;-69
2021/08/07 04:58:22;;;;;;;1.53;1.43;;;17.20;99.90;;;;;;4809419;29;20517;-69
2021/08/07 05:00:47;;;;;;;4.53;1.70;;;17.20;99.90;;;;;;4805294;29;20477;-69
2021/08/07 05:03:13;;;;;;;1.60;1.50;;;17.20;99.90;;;;;;4823116;29;20231;-68
2021/08/07 05:05:42;;;;;;;1.50;1.40;;;17.20;99.90;;;;;;4809202;29;20735;-69
2021/08/07 05:08:09;;;;;;;1.50;1.40;;;17.20;99.90;;;;;;4809136;29;20557;-68
2021/08/07 05:10:36;;;;;;;4.73;1.40;;;17.20;99.90;;;;;;4823990;29;20464;-69
2021/08/07 05:13:03;;;;;;;3.90;1.47;;;17.20;99.90;;;;;;4823523;29;20471;-68
2021/08/07 05:15:29;;;;;;;2.10;2.00;;;17.20;99.90;;;;;;4824252;29;20456;-70
2021/08/07 05:17:55;;;;;;;1.43;1.33;;;17.20;99.90;;;;;;4809860;29;20219;-69
2021/08/07 05:20:24;;;;;;;1.83;1.73;;;17.20;99.90;;;;;;4808865;29;20231;-69
2021/08/07 05:22:49;;;;;;;1.50;1.40;;;17.20;99.90;;;;;;4822272;29;20524;-69
2021/08/07 05:25:15;;;;;;;1.63;1.43;;;17.20;99.90;;;;;;4805670;29;20673;-69
2021/08/07 05:27:42;;;;;;;1.67;1.50;;;17.20;99.90;;;;;;4820322;29;20238;-69
2021/08/07 05:30:08;;;;;;;2.40;1.37;;;17.20;99.90;;;;;;4820552;29;20465;-69
2021/08/07 05:32:36;;;;;;;1.00;1.00;;;17.20;99.90;;;;;;4822925;29;20326;-69
2021/08/07 05:35:04;;;;;;;1.60;1.50;;;17.20;99.90;;;;;;4807782;29;20523;-69
2021/08/07 05:37:30;;;;;;;3.27;1.93;;;17.20;99.90;;;;;;4839762;29;20243;-72
2021/08/07 05:39:58;;;;;;;4.27;1.60;;;17.20;99.90;;;;;;4831035;29;20504;-70
2021/08/07 05:42:24;;;;;;;3.47;1.73;;;17.20;99.90;;;;;;4808119;29;20464;-69
2021/08/07 05:44:50;;;;;;;1.50;1.40;;;17.20;99.90;;;;;;4822684;29;20523;-69
2021/08/07 05:47:15;;;;;;;1.90;1.50;;;17.20;99.90;;;;;;4808002;29;20758;-69
2021/08/07 05:49:42;;;;;;;1.43;1.20;;;17.20;99.90;;;;;;4823061;29;20700;-70
2021/08/07 05:52:11;;;;;;;1.47;1.37;;;17.20;99.90;;;;;;4805993;29;20467;-68
2021/08/07 05:54:37;;;;;;;3.23;1.50;;;17.30;99.90;;;;;;4822661;29;20980;-70
2021/08/07 05:57:03;;;;;;;1.60;1.50;;;17.30;99.90;;;;;;4806444;29;20223;-69
2021/08/07 05:59:35;;;;;;;1.70;1.60;;;17.30;99.90;;;;;;4808361;29;20467;-68
2021/08/07 06:02:02;;;;;;;2.47;1.83;;;17.30;99.90;;;;;;4821938;29;20456;-68
2021/08/07 06:04:28;;;;;;;1.90;1.37;;;17.30;99.90;;;;;;4808172;29;20471;-69
2021/08/07 06:06:57;;;;;;;1.60;1.50;;;17.30;99.90;;;;;;4823126;29;20551;-70
2021/08/07 06:09:24;;;;;;;2.00;1.57;;;17.30;99.90;;;;;;4807761;29;20544;-68
2021/08/07 06:11:50;;;;;;;1.83;1.73;;;17.30;99.90;;;;;;4822549;29;20258;-69
2021/08/07 06:14:17;;;;;;;6.57;1.50;;;17.30;99.90;;;;;;4822529;29;20464;-68
2021/08/07 06:16:43;;;;;;;1.50;1.40;;;17.30;99.90;;;;;;4811575;29;20544;-70
2021/08/07 06:19:09;;;;;;;3.20;1.40;;;17.30;99.90;;;;;;4811704;29;20215;-68
2021/08/07 06:21:35;;;;;;;1.80;1.70;;;17.30;99.90;;;;;;4826314;29;20476;-69
2021/08/07 06:24:00;;;;;;;1.47;1.37;;;17.40;99.90;;;;;;4825683;29;20311;-69
2021/08/07 06:26:29;;;;;;;1.50;1.40;;;17.40;99.90;;;;;;4820480;29;20242;-70
2021/08/07 06:28:56;;;;;;;1.40;1.30;;;17.40;99.90;;;;;;4829391;29;20538;-71
2021/08/07 06:31:22;;;;;;;1.50;1.40;;;17.40;99.90;;;;;;4819003;29;20464;-69
2021/08/07 06:33:49;;;;;;;1.50;1.40;;;17.40;99.90;;;;;;4825911;29;20641;-69
2021/08/07 06:36:15;;;;;;;1.77;1.20;;;17.50;99.90;;;;;;4824614;29;20218;-69
2021/08/07 06:38:41;;;;;;;3.83;1.90;;;17.50;99.90;;;;;;4826294;29;20520;-70
2021/08/07 06:41:08;;;;;;;1.87;1.60;;;17.50;99.90;;;;;;4811008;29;20234;-69
2021/08/07 06:43:49;;;;;;;1.30;1.10;;;17.50;99.90;;;;;;4825848;29;20491;-69
2021/08/07 06:46:29;;;;;;;6.03;1.67;;;17.50;99.90;;;;;;4812532;29;20543;-68
2021/08/07 06:48:55;;;;;;;1.60;1.00;;;17.60;99.90;;;;;;4810587;29;20472;-68
2021/08/07 06:51:21;;;;;;;2.13;1.70;;;17.60;99.90;;;;;;4825902;29;20223;-68
2021/08/07 06:53:46;;;;;;;3.63;2.43;;;17.60;99.90;;;;;;4825927;29;20239;-70
2021/08/07 06:56:13;;;;;;;1.57;1.40;;;17.60;99.90;;;;;;4826054;29;20452;-67
2021/08/07 06:58:39;;;;;;;1.27;1.17;;;17.60;99.90;;;;;;4824672;29;20467;-69
2021/08/07 07:01:04;;;;;;;2.37;1.20;;;17.70;99.90;;;;;;4804735;29;20231;-69
2021/08/07 07:03:30;;;;;;;1.30;1.20;;;17.70;99.90;;;;;;4810954;29;20352;-69
2021/08/07 07:05:58;;;;;;;1.20;1.10;;;17.70;99.90;;;;;;4810077;29;20464;-68
2021/08/07 07:08:23;;;;;;;2.20;1.50;;;17.80;99.90;;;;;;4809167;29;20479;-68
2021/08/07 07:10:49;;;;;;;3.10;1.50;;;17.80;99.90;;;;;;4809874;29;20231;-69
2021/08/07 07:13:15;;;;;;;2.97;1.33;;;17.80;99.90;;;;;;4825518;29;20605;-70
2021/08/07 07:15:41;;;;;;;1.50;1.40;;;17.80;99.90;;;;;;4810374;29;20476;-69
2021/08/07 07:18:07;;;;;;;1.40;1.30;;;17.80;99.90;;;;;;4823517;29;20231;-68
2021/08/07 07:20:33;;;;;;;1.70;1.60;;;17.90;99.90;;;;;;4814235;29;20468;-70
2021/08/07 07:22:58;;;;;;;3.03;1.87;;;17.90;99.90;;;;;;4824534;29;20227;-69
2021/08/07 07:25:24;;;;;;;1.60;1.50;;;17.90;99.90;;;;;;4821336;29;20700;-69
2021/08/07 07:27:50;;;;;;;1.73;1.60;;;17.90;99.90;;;;;;4824880;29;20604;-68
2021/08/07 07:30:17;;;;;;;1.50;1.23;;;18.00;99.90;;;;;;4811069;29;20223;-69
2021/08/07 07:32:43;;;;;;;1.70;1.50;;;18.00;99.90;;;;;;4806685;29;20557;-69
2021/08/07 07:35:09;;;;;;;2.93;1.37;;;18.00;99.90;;;;;;4807334;29;20231;-68
2021/08/07 07:37:35;;;;;;;3.40;1.53;;;18.10;99.90;;;;;;4822145;29;20492;-69
2021/08/07 07:40:03;;;;;;;2.00;1.20;;;18.10;99.90;;;;;;4839387;29;21212;-69
2021/08/07 07:42:30;;;;;;;2.00;1.83;;;18.10;99.90;;;;;;4810439;29;20472;-68
2021/08/07 07:44:56;;;;;;;2.10;1.60;;;18.20;99.90;;;;;;4825018;29;20468;-69
2021/08/07 07:47:23;;;;;;;1.23;1.23;;;18.20;99.90;;;;;;4841569;29;20227;-69
2021/08/07 07:49:48;;;;;;;1.57;1.37;;;18.30;99.90;;;;;;4822873;29;20808;-70
2021/08/07 07:52:17;;;;;;;1.50;1.40;;;18.30;99.90;;;;;;4810002;29;20219;-69
2021/08/07 07:54:43;;;;;;;1.60;1.50;;;18.30;99.90;;;;;;4809032;29;20453;-69
2021/08/07 07:57:09;;;;;;;1.80;1.43;;;18.40;99.90;;;;;;4809918;29;20248;-69
2021/08/07 07:59:36;;;;;;;1.50;1.40;;;18.30;99.90;;;;;;4828744;29;20508;-69
2021/08/07 08:02:04;;;;;;;1.80;1.70;;;18.40;99.90;;;;;;4812197;29;20461;-69
2021/08/07 08:04:32;;;;;;;1.33;1.23;;;18.50;99.90;;;;;;4823234;29;20485;-69
2021/08/07 08:07:00;;;;;;;2.03;1.30;;;18.50;99.90;;;;;;4821392;29;20457;-70
2021/08/07 08:09:27;;;;;;;2.73;1.47;;;18.50;99.90;;;;;;4806691;29;20489;-69
2021/08/07 08:11:54;;;;;;;3.70;1.50;;;18.50;99.90;;;;;;4820109;29;20464;-69
2021/08/07 08:14:19;;;;;;;1.70;1.60;;;18.50;99.90;;;;;;4809646;29;20480;-68
2021/08/07 08:16:46;;;;;;;3.33;2.10;;;18.50;99.90;;;;;;4823527;29;20219;-68
2021/08/07 08:19:15;;;;;;;2.60;2.40;;;18.60;99.90;;;;;;4809529;29;20901;-69
2021/08/07 08:21:40;;;;;;;2.77;2.57;;;18.60;99.90;;;;;;4808601;29;20371;-67
2021/08/07 08:24:07;;;;;;;2.23;2.00;;;18.60;99.90;;;;;;4823555;29;20457;-69
2021/08/07 08:26:33;;;;;;;2.50;1.93;;;18.70;99.90;;;;;;4824077;29;20472;-69
2021/08/07 08:28:59;;;;;;;1.63;1.30;;;18.70;99.90;;;;;;4823809;29;20893;-69
2021/08/07 08:31:25;;;;;;;2.10;1.40;;;18.70;99.90;;;;;;4809297;29;20474;-68
2021/08/07 08:33:51;;;;;;;1.53;1.43;;;18.80;99.90;;;;;;4809034;29;20235;-68
2021/08/07 08:36:17;;;;;;;1.80;1.70;;;18.80;99.90;;;;;;4840328;29;20231;-69
2021/08/07 08:38:43;;;;;;;2.20;1.80;;;18.90;99.90;;;;;;4822292;29;20223;-68
2021/08/07 08:41:09;;;;;;;3.47;1.60;;;18.90;99.90;;;;;;4822711;29;20835;-68
2021/08/07 08:43:38;;;;;;;2.50;1.63;;;19.00;99.90;;;;;;4822999;29;20259;-69
2021/08/07 08:46:05;;;;;;;1.97;1.50;;;19.10;99.90;;;;;;4808154;29;20453;-68
2021/08/07 08:48:32;;;;;;;1.60;1.30;;;19.10;99.90;;;;;;4804450;29;20468;-69
2021/08/07 08:50:58;;;;;;;3.10;1.83;;;19.20;99.90;;;;;;4819933;29;20530;-71
2021/08/07 08:53:24;;;;;;;3.83;1.50;;;19.30;99.90;;;;;;4790274;29;20469;-69
2021/08/07 08:55:50;;;;;;;3.90;1.50;;;19.40;99.90;;;;;;4829961;29;20457;-72
2021/08/07 08:58:16;;;;;;;3.73;1.97;;;19.50;99.90;;;;;;4822946;29;20219;-67
2021/08/07 09:00:42;;;;;;;2.50;1.57;;;19.60;99.90;;;;;;4813493;29;20227;-68
2021/08/07 09:03:08;;;;;;;3.43;1.70;;;19.70;99.90;;;;;;4828658;29;20503;-69
2021/08/07 09:05:34;;;;;;;1.40;1.30;;;19.70;99.90;;;;;;4831034;29;20468;-70
2021/08/07 09:08:00;;;;;;;2.63;2.00;;;19.90;99.90;;;;;;4821176;29;20487;-69
2021/08/07 09:10:28;;;;;;;3.50;2.10;;;20.00;99.90;;;;;;4808161;29;20647;-69
2021/08/07 09:13:03;;;;;;;1.60;1.50;;;20.10;99.90;;;;;;4822577;29;20488;-69
2021/08/07 09:15:32;;;;;;;1.93;1.83;;;20.20;99.90;;;;;;4825969;29;20513;-68
2021/08/07 09:18:10;;;;;;;2.53;1.70;;;20.30;99.90;;;;;;4822034;29;20480;-68
2021/08/07 09:20:40;;;;;;;1.30;1.20;;;20.30;99.90;;;;;;4807161;29;20476;-68
2021/08/07 09:23:07;;;;;;;2.10;1.30;;;20.30;99.90;;;;;;4806478;29;20539;-67
2021/08/07 09:25:34;;;;;;;2.50;1.50;;;20.30;99.90;;;;;;4807511;29;20468;-69
2021/08/07 09:28:00;;;;;;;2.23;1.50;;;20.30;99.90;;;;;;4838804;29;20457;-70
2021/08/07 09:30:32;;;;;;;1.50;1.40;;;20.30;99.90;;;;;;4807030;29;20505;-71
2021/08/07 09:33:12;;;;;;;2.23;1.53;;;20.30;99.90;;;;;;4823161;29;20893;-70
2021/08/07 09:35:44;;;;;;;1.87;1.50;;;20.30;99.90;;;;;;4821486;29;20456;-68
2021/08/07 09:38:22;;;;;;;1.80;1.70;;;20.30;99.90;;;;;;4834902;29;20511;-68
2021/08/07 09:41:04;;;;;;;2.60;1.40;;;20.30;99.90;;;;;;4820581;29;20479;-68
2021/08/07 09:43:40;;;;;;;3.57;1.97;;;20.30;99.90;;;;;;4816527;29;20491;-69
2021/08/07 09:46:15;;;;;;;1.43;1.33;;;20.40;99.90;;;;;;4821789;29;20464;-70
2021/08/07 09:48:46;;;;;;;1.70;1.53;;;20.40;99.90;;;;;;4806214;29;20528;-70
2021/08/07 09:51:20;;;;;;;1.60;1.50;;;20.40;99.90;;;;;;4807333;29;20977;-68
2021/08/07 09:54:06;;;;;;;2.57;1.40;;;20.40;99.90;;;;;;4822533;29;20503;-68
2021/08/07 09:56:53;;;;;;;5.10;1.80;;;20.50;99.90;;;;;;4822834;29;20637;-68
2021/08/07 09:59:23;;;;;;;1.47;1.33;;;20.50;99.90;;;;;;4806055;29;20461;-68
2021/08/07 10:01:50;;;;;;;5.10;1.27;;;20.50;99.90;;;;;;4824866;29;20507;-70
2021/08/07 10:04:20;;;;;;;1.53;1.43;;;20.50;99.90;;;;;;4825160;29;20496;-68
2021/08/07 10:06:51;;;;;;;2.10;1.60;;;20.50;99.90;;;;;;4807206;29;20464;-69
2021/08/07 10:09:31;;;;;;;1.50;1.40;;;20.50;99.90;;;;;;4808009;29;20464;-68
2021/08/07 10:12:03;;;;;;;1.73;1.30;;;20.60;99.90;;;;;;4832230;29;20461;-68
2021/08/07 10:14:30;;;;;;;1.43;1.23;;;20.60;99.90;;;;;;4816628;29;20465;-69
2021/08/07 10:16:59;;;;;;;1.97;1.87;;;20.60;99.90;;;;;;4828156;29;20472;-70
2021/08/07 10:19:26;;;;;;;2.10;1.90;;;20.60;99.90;;;;;;4810710;29;20495;-69
2021/08/07 10:21:52;;;;;;;2.90;1.80;;;20.70;99.90;;;;;;4802435;29;20485;-69
2021/08/07 10:24:19;;;;;;;1.87;1.73;;;20.70;99.90;;;;;;4825249;29;20477;-68
2021/08/07 10:26:46;;;;;;;3.10;1.10;;;20.70;99.90;;;;;;4819308;29;20468;-69
2021/08/07 10:29:23;;;;;;;6.30;1.90;;;20.70;99.90;;;;;;4822588;29;20524;-69
2021/08/07 10:31:52;;;;;;;5.63;1.50;;;20.70;99.90;;;;;;4823806;29;20460;-71
2021/08/07 10:34:21;;;;;;;2.50;1.57;;;20.70;99.90;;;;;;4814158;29;20494;-70
2021/08/07 10:36:47;;;;;;;2.10;1.50;;;20.60;99.90;;;;;;4821164;29;20464;-69
2021/08/07 10:39:14;;;;;;;4.60;1.90;;;20.60;99.90;;;;;;4808073;29;20460;-69
2021/08/07 10:41:40;;;;;;;1.83;1.30;;;20.60;99.90;;;;;;4813944;29;20936;-69
2021/08/07 10:44:07;;;;;;;1.73;1.50;;;20.60;99.90;;;;;;4814534;29;20500;-70
2021/08/07 10:46:34;;;;;;;1.30;1.20;;;20.60;99.90;;;;;;4811693;29;20472;-69
2021/08/07 10:49:00;;;;;;;3.77;1.40;;;20.60;99.90;;;;;;4827652;29;20452;-70
2021/08/07 10:51:29;;;;;;;1.40;1.30;;;20.70;99.90;;;;;;4803413;29;20496;-70
2021/08/07 10:53:57;;;;;;;2.97;1.20;;;20.70;99.90;;;;;;4813098;29;20514;-70
2021/08/07 10:56:29;;;;;;;3.43;1.50;;;20.70;99.90;;;;;;4806046;29;20496;-70
2021/08/07 10:58:56;;;;;;;1.93;1.50;;;20.80;99.90;;;;;;4820733;29;20464;-71
2021/08/07 11:01:25;;;;;;;5.53;1.60;;;20.80;99.90;;;;;;4839606;29;20484;-67
2021/08/07 11:04:03;;;;;;;1.97;1.10;;;20.80;99.90;;;;;;4808441;29;20476;-69
2021/08/07 11:06:37;;;;;;;2.27;1.57;;;20.80;99.90;;;;;;4835090;29;20494;-70
2021/08/07 11:09:12;;;;;;;2.23;1.53;;;20.80;99.90;;;;;;4841199;29;20459;-70
2021/08/07 11:11:37;;;;;;;4.27;1.50;;;20.80;99.90;;;;;;4825316;29;20471;-69
2021/08/07 11:14:21;;;;;;;1.50;1.40;;;20.80;99.90;;;;;;4808428;29;20544;-70
2021/08/07 11:17:05;;;;;;;1.70;1.60;;;20.80;99.90;;;;;;4824205;29;20239;-70
2021/08/07 11:20:03;;;;;;;4.17;2.57;;;20.80;99.90;;;;;;4825027;29;20470;-70
2021/08/07 11:22:32;;;;;;;1.53;1.43;;;20.90;99.90;;;;;;4809428;29;20472;-67
2021/08/07 11:25:03;;;;;;;2.83;1.47;;;20.90;99.90;;;;;;4818372;29;20476;-69
2021/08/07 11:27:55;;;;;;;2.10;1.40;;;20.90;99.90;;;;;;4826569;29;20462;-70
2021/08/07 11:30:39;;;;;;;1.57;1.30;;;21.00;99.90;;;;;;4822706;29;20541;-69
2021/08/07 11:33:10;;;;;;;2.83;1.73;;;21.00;99.90;;;;;;4811214;29;20483;-72
2021/08/07 11:35:41;;;;;;;1.30;1.20;;;21.10;99.90;;;;;;4823945;29;20464;-71
2021/08/07 11:38:10;;;;;;;8.33;1.97;;;21.10;99.90;;;;;;4806966;29;20465;-69
2021/08/07 11:40:46;;;;;;;2.03;1.70;;;21.10;99.90;;;;;;4809229;29;20486;-69
2021/08/07 11:43:22;;;;;;;1.40;1.30;;;21.20;99.90;;;;;;4823787;29;20464;-69
2021/08/07 11:45:55;;;;;;;2.80;1.60;;;21.20;99.90;;;;;;4821668;29;20464;-69
2021/08/07 11:48:39;;;;;;;3.50;1.90;;;21.20;99.90;;;;;;4817991;29;20510;-68
2021/08/07 11:51:06;;;;;;;1.60;1.50;;;21.20;99.90;;;;;;4823050;29;20457;-69
2021/08/07 11:53:33;;;;;;;1.43;1.30;;;21.20;99.90;;;;;;4824476;29;20532;-69
2021/08/07 11:56:05;;;;;;;2.63;1.47;;;21.20;99.90;;;;;;4808797;29;20471;-69
2021/08/07 11:58:32;;;;;;;2.40;1.50;;;21.20;99.90;;;;;;4824579;29;20479;-69
2021/08/07 12:01:03;;;;;;;4.30;1.70;;;21.20;99.90;;;;;;4819175;29;20576;-68
2021/08/07 12:03:42;;;;;;;1.93;1.50;;;21.20;99.90;;;;;;4821384;29;20496;-69
2021/08/07 12:06:08;;;;;;;1.53;1.43;;;21.20;99.90;;;;;;4820367;29;20472;-69
2021/08/07 12:08:35;;;;;;;2.53;1.73;;;21.20;99.90;;;;;;4806102;29;20504;-69
2021/08/07 12:11:09;;;;;;;3.43;1.47;;;21.20;99.90;;;;;;4808498;29;20472;-69
2021/08/07 12:13:40;;;;;;;3.27;1.63;;;21.30;99.90;;;;;;4841056;29;20480;-70
2021/08/07 12:16:06;;;;;;;1.57;1.47;;;21.30;99.90;;;;;;4823445;29;20497;-69
2021/08/07 12:18:54;;;;;;;3.83;1.90;;;21.30;99.90;;;;;;4809186;29;20460;-70
2021/08/07 12:21:22;;;;;;;1.53;1.43;;;21.30;99.90;;;;;;4836595;29;20588;-70
2021/08/07 12:23:49;;;;;;;3.80;1.50;;;21.30;99.90;;;;;;4824174;29;20478;-69
2021/08/07 12:26:17;;;;;;;1.60;1.50;;;21.30;99.90;;;;;;4809287;29;20513;-66
2021/08/07 12:28:44;;;;;;;2.90;1.77;;;21.30;99.90;;;;;;4839633;29;20472;-70
2021/08/07 12:31:10;;;;;;;1.63;1.43;;;21.30;99.90;;;;;;4807976;29;21027;-69
2021/08/07 12:33:43;;;;;;;4.77;1.50;;;21.40;99.90;;;;;;4823233;29;20485;-69
2021/08/07 12:36:17;;;;;;;2.87;1.60;;;21.40;99.90;;;;;;4809983;29;20472;-68
2021/08/07 12:38:49;;;;;;;2.73;1.10;;;21.40;99.90;;;;;;4828913;29;20481;-69
2021/08/07 12:41:19;;;;;;;1.50;1.40;;;21.40;99.90;;;;;;4813614;29;20468;-68
2021/08/07 12:43:45;;;;;;;3.47;1.60;;;21.40;99.90;;;;;;4833504;29;20465;-69
2021/08/07 12:46:13;;;;;;;2.07;1.60;;;21.40;99.90;;;;;;4838923;29;20457;-69
2021/08/07 12:49:00;;;;;;;2.60;1.60;;;21.40;99.90;;;;;;4832038;29;20500;-70
2021/08/07 12:51:31;;;;;;;3.00;2.80;;;21.40;99.90;;;;;;4817902;29;20492;-68
2021/08/07 12:53:59;;;;;;;3.30;3.00;;;21.40;99.90;;;;;;4805560;29;21118;-69
2021/08/07 12:56:29;;;;;;;3.37;2.07;;;21.40;99.90;;;;;;4818185;29;20465;-69
2021/08/07 12:59:08;;;;;;;3.67;1.83;;;21.50;99.90;;;;;;4822652;29;20482;-70